Time;durP1;ratioP1;P1;durP2;ratioP2;P2;SDS_P1;SDS_P2;PMS_P1;PMS_P2;Temp;Humidity;BMP_temperature;BMP_pressure;BME280_temperature;BME280_humidity;BME280_pressure;Samples;Min_cycle;Max_cycle;Signal;HPM_P1;HPM_P2
2022/06/09 00:02:04;;;;;;;22.10;15.50;;;15.60;99.90;;;;;;5015120;28;20267;-76
2022/06/09 00:04:49;;;;;;;23.77;15.33;;;15.60;99.90;;;;;;5007341;28;20184;-75
2022/06/09 00:07:34;;;;;;;19.43;15.10;;;15.50;99.90;;;;;;5011458;28;20655;-77
2022/06/09 00:10:26;;;;;;;19.47;15.50;;;15.60;99.90;;;;;;5012524;28;20226;-74
2022/06/09 00:13:11;;;;;;;24.53;16.13;;;15.50;99.90;;;;;;5013701;28;20297;-76
2022/06/09 00:15:55;;;;;;;22.80;15.80;;;15.50;99.90;;;;;;5011784;28;20257;-76
2022/06/09 00:18:41;;;;;;;24.97;16.23;;;15.50;99.90;;;;;;5007577;28;20199;-76
2022/06/09 00:21:25;;;;;;;21.27;15.50;;;15.50;99.90;;;;;;5003394;28;20240;-75
2022/06/09 00:24:10;;;;;;;22.43;16.40;;;15.50;99.90;;;;;;5015434;28;20187;-75
2022/06/09 00:26:54;;;;;;;20.50;14.93;;;15.50;99.90;;;;;;5003150;28;20243;-75
2022/06/09 00:29:38;;;;;;;24.23;16.00;;;15.50;99.90;;;;;;5017353;28;20288;-74
2022/06/09 00:32:23;;;;;;;23.03;17.80;;;15.50;99.90;;;;;;5014292;28;20272;-76
2022/06/09 00:35:07;;;;;;;26.53;17.10;;;15.50;99.90;;;;;;5018878;28;20276;-75
2022/06/09 00:37:51;;;;;;;24.63;17.10;;;15.50;99.90;;;;;;5015331;28;20261;-75
2022/06/09 00:40:35;;;;;;;22.93;16.67;;;15.50;99.90;;;;;;5016003;28;20199;-75
2022/06/09 00:43:20;;;;;;;23.50;17.30;;;15.50;99.90;;;;;;5014167;28;20323;-75
2022/06/09 00:46:18;;;;;;;24.77;17.20;;;15.50;99.90;;;;;;5015329;28;20239;-76
2022/06/09 00:49:08;;;;;;;24.67;17.40;;;15.50;99.90;;;;;;5002829;28;20231;-75
2022/06/09 00:51:58;;;;;;;25.93;17.63;;;15.50;99.90;;;;;;5008843;28;20215;-75
2022/06/09 00:54:50;;;;;;;29.30;19.07;;;15.50;99.90;;;;;;4999700;28;20188;-76
2022/06/09 00:57:41;;;;;;;30.50;18.63;;;15.50;99.90;;;;;;5020715;28;20207;-75
2022/06/09 01:00:30;;;;;;;27.37;18.87;;;15.50;99.90;;;;;;5008636;28;20180;-74
2022/06/09 01:03:18;;;;;;;34.83;20.97;;;15.50;99.90;;;;;;5016742;28;20239;-75
2022/06/09 01:06:08;;;;;;;30.20;20.70;;;15.50;99.90;;;;;;5013701;28;20231;-75
2022/06/09 01:09:14;;;;;;;30.53;19.60;;;15.50;99.90;;;;;;5009097;28;20200;-75
2022/06/09 01:11:59;;;;;;;28.50;20.50;;;15.50;99.90;;;;;;5015490;28;20247;-75
2022/06/09 01:14:43;;;;;;;29.10;20.80;;;15.50;99.90;;;;;;5005789;28;20300;-76
2022/06/09 01:17:46;;;;;;;29.73;21.00;;;15.50;99.90;;;;;;5013352;28;20212;-76
2022/06/09 01:20:36;;;;;;;30.47;20.83;;;15.50;99.90;;;;;;5005717;28;20192;-75
2022/06/09 01:23:38;;;;;;;32.00;22.17;;;15.50;99.90;;;;;;5011480;28;20203;-76
2022/06/09 01:26:34;;;;;;;32.30;21.30;;;15.50;99.90;;;;;;4996986;28;20185;-75
2022/06/09 01:29:38;;;;;;;30.63;21.97;;;15.50;99.90;;;;;;5008892;28;20202;-74
2022/06/09 01:32:33;;;;;;;31.63;22.40;;;15.50;99.90;;;;;;5007337;28;20247;-74
2022/06/09 01:35:41;;;;;;;30.73;22.10;;;15.50;99.90;;;;;;5021641;28;20184;-75
2022/06/09 01:38:25;;;;;;;36.63;22.77;;;15.50;99.90;;;;;;5008561;28;20256;-76
2022/06/09 01:41:09;;;;;;;30.73;22.57;;;15.50;99.90;;;;;;5007337;28;20188;-75
2022/06/09 01:43:54;;;;;;;36.77;23.13;;;15.50;99.90;;;;;;5009642;28;20264;-75
2022/06/09 01:46:41;;;;;;;33.93;23.83;;;15.50;99.90;;;;;;5014795;28;20280;-75
2022/06/09 01:49:29;;;;;;;35.33;22.93;;;15.50;99.90;;;;;;5005750;28;20273;-77
2022/06/09 01:52:13;;;;;;;36.23;23.43;;;15.50;99.90;;;;;;5020303;28;20207;-75
2022/06/09 01:55:00;;;;;;;32.73;23.83;;;15.50;99.90;;;;;;5004957;28;20243;-77
2022/06/09 01:57:49;;;;;;;33.90;23.03;;;15.50;99.90;;;;;;5009925;28;20221;-74
2022/06/09 02:00:36;;;;;;;33.63;22.30;;;15.50;99.90;;;;;;5007686;28;20236;-75
2022/06/09 02:03:29;;;;;;;36.50;23.23;;;15.60;99.90;;;;;;5007160;28;20722;-75
2022/06/09 02:06:14;;;;;;;37.60;24.30;;;15.50;99.90;;;;;;5013598;28;20232;-76
2022/06/09 02:09:00;;;;;;;39.20;23.07;;;15.50;99.90;;;;;;5017216;28;20189;-74
2022/06/09 02:11:53;;;;;;;30.60;22.17;;;15.50;99.90;;;;;;5011981;28;20220;-76
2022/06/09 02:14:40;;;;;;;34.97;23.83;;;15.50;99.90;;;;;;5016948;28;20238;-75
2022/06/09 02:17:24;;;;;;;35.60;22.63;;;15.50;99.90;;;;;;4998899;28;20275;-75
2022/06/09 02:20:10;;;;;;;35.00;21.60;;;15.50;99.90;;;;;;5015871;28;20199;-75
2022/06/09 02:22:54;;;;;;;31.97;22.87;;;15.50;99.90;;;;;;5014167;28;20279;-75
2022/06/09 02:25:39;;;;;;;35.20;24.13;;;15.50;99.90;;;;;;5015134;28;20199;-75
2022/06/09 02:28:23;;;;;;;34.07;22.57;;;15.50;99.90;;;;;;5014648;28;20658;-75
2022/06/09 02:31:07;;;;;;;36.07;21.93;;;15.40;99.90;;;;;;5009526;28;20203;-74
2022/06/09 02:33:52;;;;;;;33.93;21.73;;;15.40;99.90;;;;;;5012548;28;20688;-74
2022/06/09 02:36:36;;;;;;;31.07;22.43;;;15.50;99.90;;;;;;5014502;28;20212;-75
2022/06/09 02:39:20;;;;;;;37.60;22.17;;;15.40;99.90;;;;;;5002954;28;20204;-75
2022/06/09 02:42:06;;;;;;;31.03;21.30;;;15.40;99.90;;;;;;5010216;28;20288;-75
2022/06/09 02:44:51;;;;;;;32.07;21.67;;;15.40;99.90;;;;;;5005427;28;20227;-76
2022/06/09 02:47:36;;;;;;;33.47;21.93;;;15.40;99.90;;;;;;5005076;28;20235;-74
2022/06/09 02:50:20;;;;;;;33.03;21.90;;;15.40;99.90;;;;;;5005212;28;20200;-75
2022/06/09 02:53:06;;;;;;;32.37;22.37;;;15.40;99.90;;;;;;5014350;28;20278;-76
2022/06/09 02:55:51;;;;;;;28.87;21.10;;;15.40;99.90;;;;;;5034455;28;20207;-75
2022/06/09 02:58:35;;;;;;;31.73;20.53;;;15.40;99.90;;;;;;5014090;28;20305;-75
2022/06/09 03:01:20;;;;;;;29.53;20.97;;;15.40;99.90;;;;;;5006514;28;20246;-75
2022/06/09 03:04:05;;;;;;;34.53;21.67;;;15.40;99.90;;;;;;5017960;28;20312;-75
2022/06/09 03:06:49;;;;;;;31.10;20.13;;;15.40;99.90;;;;;;5011462;28;20202;-77
2022/06/09 03:09:33;;;;;;;30.10;20.50;;;15.40;99.90;;;;;;5005378;28;20238;-75
2022/06/09 03:12:18;;;;;;;28.20;19.33;;;15.40;99.90;;;;;;5022617;28;20240;-77
2022/06/09 03:15:07;;;;;;;30.83;19.43;;;15.40;99.90;;;;;;5006628;28;20550;-74
2022/06/09 03:17:52;;;;;;;33.17;20.93;;;15.40;99.90;;;;;;5011756;28;20219;-75
2022/06/09 03:20:36;;;;;;;29.30;19.77;;;15.40;99.90;;;;;;5010837;28;20231;-75
2022/06/09 03:23:20;;;;;;;33.13;19.10;;;15.30;99.90;;;;;;5014539;28;20206;-75
2022/06/09 03:26:05;;;;;;;25.37;18.80;;;15.40;99.90;;;;;;4998904;28;20183;-75
2022/06/09 03:28:51;;;;;;;29.07;18.33;;;15.40;99.90;;;;;;5011347;28;20199;-75
2022/06/09 03:31:36;;;;;;;32.90;19.13;;;15.40;99.90;;;;;;5000830;28;20266;-75
2022/06/09 03:34:20;;;;;;;26.30;18.07;;;15.40;99.90;;;;;;5008729;28;20235;-76
2022/06/09 03:37:04;;;;;;;29.30;18.80;;;15.30;99.90;;;;;;5012648;28;20217;-74
2022/06/09 03:39:49;;;;;;;32.13;18.70;;;15.30;99.90;;;;;;5010893;28;20185;-76
2022/06/09 03:42:33;;;;;;;32.27;19.23;;;15.30;99.90;;;;;;5005493;28;20208;-76
2022/06/09 03:45:17;;;;;;;25.60;18.00;;;15.30;99.90;;;;;;5004094;28;20255;-75
2022/06/09 03:48:03;;;;;;;25.83;17.97;;;15.30;99.90;;;;;;5010129;28;20304;-75
2022/06/09 03:50:46;;;;;;;27.30;17.73;;;15.30;99.90;;;;;;5006981;28;20195;-74
2022/06/09 03:53:31;;;;;;;26.60;17.07;;;15.30;99.90;;;;;;5001814;28;20259;-75
2022/06/09 03:56:21;;;;;;;25.33;16.53;;;15.30;99.90;;;;;;5014132;28;20210;-75
2022/06/09 03:59:06;;;;;;;25.63;16.47;;;15.20;99.90;;;;;;5011081;28;20243;-75
2022/06/09 04:01:50;;;;;;;31.37;17.13;;;15.30;99.90;;;;;;5011821;28;20204;-75
2022/06/09 04:04:35;;;;;;;27.57;16.87;;;15.30;99.90;;;;;;5011887;28;20196;-75
2022/06/09 04:07:20;;;;;;;24.53;16.23;;;15.30;99.90;;;;;;5015922;28;20207;-75
2022/06/09 04:10:05;;;;;;;28.63;16.10;;;15.20;99.90;;;;;;5012459;28;20199;-74
2022/06/09 04:12:50;;;;;;;26.30;15.83;;;15.20;99.90;;;;;;5011297;28;20285;-75
2022/06/09 04:15:34;;;;;;;26.97;15.73;;;15.20;99.90;;;;;;5001882;28;20228;-75
2022/06/09 04:18:19;;;;;;;25.50;16.80;;;15.20;99.90;;;;;;5020261;28;20363;-75
2022/06/09 04:21:04;;;;;;;23.87;15.93;;;15.20;99.90;;;;;;5009976;28;20193;-74
2022/06/09 04:23:48;;;;;;;23.63;15.40;;;15.20;99.90;;;;;;5014808;28;20196;-76
2022/06/09 04:26:36;;;;;;;24.30;15.83;;;15.20;99.90;;;;;;4999732;28;20188;-76
2022/06/09 04:29:20;;;;;;;24.10;15.70;;;15.20;99.90;;;;;;5009341;28;20184;-75
2022/06/09 04:32:06;;;;;;;25.03;14.90;;;15.20;99.90;;;;;;5001702;28;20224;-76
2022/06/09 04:34:51;;;;;;;26.70;15.20;;;15.20;99.90;;;;;;5005133;28;20192;-74
2022/06/09 04:40:41;;;;;;;27.73;15.07;;;15.20;99.90;;;;;;5011392;28;20191;-75
2022/06/09 04:43:25;;;;;;;22.33;14.30;;;15.20;99.90;;;;;;5009814;28;20300;-74
2022/06/09 04:46:12;;;;;;;23.83;14.47;;;15.20;99.90;;;;;;5011078;28;20188;-76
2022/06/09 04:48:57;;;;;;;24.47;14.40;;;15.20;99.90;;;;;;5013142;28;20187;-74
2022/06/09 04:51:41;;;;;;;20.97;13.83;;;15.20;99.90;;;;;;5006292;28;20213;-75
2022/06/09 04:54:27;;;;;;;23.43;14.20;;;15.20;99.90;;;;;;5006995;28;20732;-75
2022/06/09 04:57:12;;;;;;;20.03;13.77;;;15.20;99.90;;;;;;5004761;28;20240;-77
2022/06/09 04:59:56;;;;;;;21.17;13.30;;;15.20;99.90;;;;;;5006068;28;20195;-76
2022/06/09 05:02:40;;;;;;;24.07;13.83;;;15.20;99.90;;;;;;5014419;28;20740;-76
2022/06/09 05:05:29;;;;;;;18.23;13.67;;;15.20;99.90;;;;;;5002694;28;20360;-76
2022/06/09 05:08:14;;;;;;;20.63;12.17;;;15.20;99.90;;;;;;5009251;28;20292;-74
2022/06/09 05:10:58;;;;;;;20.93;12.10;;;15.20;99.90;;;;;;5002172;28;20615;-77
2022/06/09 05:13:43;;;;;;;22.60;12.20;;;15.20;99.90;;;;;;5014327;28;20241;-75
2022/06/09 05:16:27;;;;;;;23.43;12.17;;;15.20;99.90;;;;;;5010622;28;20188;-75
2022/06/09 05:19:11;;;;;;;22.90;12.53;;;15.20;99.90;;;;;;5012943;28;20217;-75
2022/06/09 05:21:55;;;;;;;18.73;11.53;;;15.20;99.90;;;;;;5009447;28;20216;-76
2022/06/09 05:24:39;;;;;;;17.73;10.57;;;15.20;99.90;;;;;;5008433;28;20188;-75
2022/06/09 05:27:25;;;;;;;17.57;11.13;;;15.20;99.90;;;;;;5006180;28;20223;-75
2022/06/09 05:30:15;;;;;;;22.27;11.53;;;15.30;99.90;;;;;;5002688;28;20248;-76
2022/06/09 05:33:01;;;;;;;20.20;11.33;;;15.30;99.90;;;;;;5002977;28;20247;-75
2022/06/09 05:35:46;;;;;;;16.07;10.73;;;15.30;99.90;;;;;;5000066;28;20256;-75
2022/06/09 05:44:51;;;;;;;21.73;11.03;;;15.30;99.90;;;;;;5003757;28;20250;-74
2022/06/09 05:47:36;;;;;;;21.03;11.00;;;15.40;99.90;;;;;;5024683;28;20187;-74
2022/06/09 05:50:20;;;;;;;19.20;11.43;;;15.40;99.90;;;;;;5015866;28;20308;-74
2022/06/09 05:53:04;;;;;;;17.03;10.83;;;15.40;99.90;;;;;;5001049;28;20212;-75
2022/06/09 05:55:48;;;;;;;20.87;10.67;;;15.40;99.90;;;;;;5000074;28;20220;-75
2022/06/09 05:58:33;;;;;;;16.27;10.53;;;15.40;99.90;;;;;;5007907;28;20258;-74
2022/06/09 06:01:17;;;;;;;17.93;11.07;;;15.50;99.90;;;;;;5007060;28;20279;-76
2022/06/09 06:04:07;;;;;;;18.03;11.07;;;15.40;99.90;;;;;;4998476;28;20192;-75
2022/06/09 06:06:51;;;;;;;20.17;11.10;;;15.50;99.90;;;;;;4998357;28;20707;-74
2022/06/09 06:09:37;;;;;;;21.07;11.03;;;15.50;99.90;;;;;;5005456;28;20217;-74
2022/06/09 06:12:21;;;;;;;15.43;10.33;;;15.40;99.90;;;;;;5006784;28;20210;-74
2022/06/09 06:15:06;;;;;;;18.73;10.83;;;15.50;99.90;;;;;;5013740;28;20193;-76
2022/06/09 06:17:54;;;;;;;17.70;10.50;;;15.50;99.90;;;;;;5028735;28;20220;-74
2022/06/09 06:20:38;;;;;;;19.10;11.10;;;15.50;99.90;;;;;;5009708;28;20251;-73
2022/06/09 06:23:23;;;;;;;17.33;10.33;;;15.50;99.90;;;;;;5007666;28;20204;-75
2022/06/09 06:26:07;;;;;;;16.63;10.23;;;15.50;99.90;;;;;;5010952;28;20250;-74
2022/06/09 06:28:52;;;;;;;15.60;10.93;;;15.50;99.90;;;;;;5007017;28;20768;-75
2022/06/09 06:31:36;;;;;;;16.57;10.43;;;15.50;99.90;;;;;;5007715;28;20207;-74
2022/06/09 06:34:20;;;;;;;16.93;11.07;;;15.50;99.90;;;;;;5000664;28;20184;-75
2022/06/09 06:37:04;;;;;;;22.77;10.77;;;15.50;99.90;;;;;;5006119;28;20381;-75
2022/06/09 06:39:49;;;;;;;22.93;11.20;;;15.50;99.90;;;;;;5002263;28;20211;-74
2022/06/09 06:42:33;;;;;;;18.87;11.00;;;15.60;99.90;;;;;;4998343;28;20231;-74
2022/06/09 06:45:18;;;;;;;20.83;11.83;;;15.60;99.90;;;;;;5009965;28;20180;-74
2022/06/09 06:48:03;;;;;;;14.87;11.47;;;15.60;99.90;;;;;;5008109;28;20722;-75
2022/06/09 06:50:48;;;;;;;19.23;11.47;;;15.60;99.90;;;;;;5007282;28;20190;-74
2022/06/09 06:53:34;;;;;;;16.17;11.37;;;15.60;99.90;;;;;;5005926;28;20263;-74
2022/06/09 06:56:18;;;;;;;20.50;11.47;;;15.60;99.90;;;;;;5002889;28;20240;-76
2022/06/09 06:59:02;;;;;;;18.53;11.70;;;15.70;99.90;;;;;;5003059;28;20196;-74
2022/06/09 07:01:46;;;;;;;19.03;12.20;;;15.70;99.90;;;;;;5010430;28;20327;-74
2022/06/09 07:04:30;;;;;;;17.30;11.73;;;15.70;99.90;;;;;;5006730;28;20203;-74
2022/06/09 07:07:14;;;;;;;18.03;12.17;;;15.70;99.90;;;;;;5006681;28;20696;-74
2022/06/09 07:09:58;;;;;;;17.80;11.27;;;15.70;99.90;;;;;;5007286;28;20200;-74
2022/06/09 07:12:42;;;;;;;17.43;10.63;;;15.70;99.90;;;;;;5001687;28;20709;-75
2022/06/09 07:15:26;;;;;;;16.10;11.53;;;15.70;99.90;;;;;;5000130;28;20614;-75
2022/06/09 07:18:11;;;;;;;17.03;12.07;;;15.70;99.90;;;;;;5006432;28;20259;-74
2022/06/09 07:20:55;;;;;;;15.20;11.17;;;15.70;99.90;;;;;;5001800;28;20203;-75
2022/06/09 07:23:40;;;;;;;17.47;11.63;;;15.70;99.90;;;;;;5007776;28;20219;-74
2022/06/09 07:26:25;;;;;;;14.63;10.90;;;15.70;99.90;;;;;;5004809;28;20200;-74
2022/06/09 07:29:09;;;;;;;17.73;11.10;;;15.80;99.90;;;;;;5003516;28;20265;-75
2022/06/09 07:31:54;;;;;;;16.70;11.50;;;15.70;99.90;;;;;;5004999;28;20267;-74
2022/06/09 07:34:38;;;;;;;21.53;10.90;;;15.80;99.90;;;;;;5006694;28;20219;-74
2022/06/09 07:37:22;;;;;;;16.33;11.07;;;15.80;99.90;;;;;;5011046;28;20208;-75
2022/06/09 07:40:07;;;;;;;17.70;11.67;;;15.80;99.90;;;;;;5004652;28;20211;-75
2022/06/09 07:42:52;;;;;;;16.53;11.73;;;15.80;99.90;;;;;;5003518;28;20263;-73
2022/06/09 07:45:37;;;;;;;15.23;11.20;;;15.80;99.90;;;;;;5006054;28;20200;-73
2022/06/09 07:48:21;;;;;;;15.80;12.07;;;15.80;99.90;;;;;;5010218;28;20191;-74
2022/06/09 07:51:07;;;;;;;14.77;11.60;;;15.80;99.90;;;;;;5017928;28;20184;-74
2022/06/09 07:53:52;;;;;;;19.10;11.17;;;15.90;99.90;;;;;;5009506;28;20192;-74
2022/06/09 07:56:36;;;;;;;17.73;11.63;;;15.90;99.90;;;;;;5012141;28;20597;-75
2022/06/09 07:59:20;;;;;;;18.90;11.73;;;15.90;99.90;;;;;;5013747;28;20253;-74
2022/06/09 08:02:05;;;;;;;19.57;11.37;;;15.90;99.90;;;;;;5019951;28;20211;-74
2022/06/09 08:04:49;;;;;;;17.40;12.03;;;15.90;99.90;;;;;;5006170;28;20195;-75
2022/06/09 08:07:34;;;;;;;18.97;11.63;;;15.90;99.90;;;;;;5009162;28;20188;-74
2022/06/09 08:10:23;;;;;;;17.90;11.63;;;16.00;99.90;;;;;;5014609;28;20195;-75
2022/06/09 08:13:09;;;;;;;18.70;11.93;;;16.00;99.90;;;;;;5009080;28;20215;-73
2022/06/09 08:15:53;;;;;;;15.80;11.70;;;16.00;99.90;;;;;;5017723;28;20220;-75
2022/06/09 08:18:37;;;;;;;20.87;11.73;;;16.00;99.90;;;;;;4999313;28;20204;-74
2022/06/09 08:21:22;;;;;;;16.43;11.60;;;16.10;99.90;;;;;;4998335;28;20311;-75
2022/06/09 08:24:07;;;;;;;15.53;10.73;;;16.10;99.90;;;;;;5003849;28;20223;-75
2022/06/09 08:26:51;;;;;;;15.17;11.27;;;16.10;99.90;;;;;;5024085;28;20192;-75
2022/06/09 08:29:35;;;;;;;16.13;11.30;;;16.20;99.90;;;;;;5009392;28;20314;-74
2022/06/09 08:32:19;;;;;;;17.10;12.07;;;16.30;99.90;;;;;;5004131;28;20220;-75
2022/06/09 08:35:07;;;;;;;16.37;11.17;;;16.30;99.90;;;;;;5012483;28;20296;-75
2022/06/09 08:37:53;;;;;;;17.93;9.90;;;16.40;99.90;;;;;;5010786;28;20211;-75
2022/06/09 08:40:56;;;;;;;13.47;9.90;;;16.50;99.90;;;;;;5010914;28;20371;-75
2022/06/09 08:43:50;;;;;;;13.43;9.30;;;16.60;99.90;;;;;;5020636;28;20203;-74
2022/06/09 08:46:49;;;;;;;12.97;9.87;;;16.60;99.90;;;;;;5012859;28;20255;-75
2022/06/09 08:50:02;;;;;;;16.93;9.60;;;16.60;99.90;;;;;;5007161;28;20255;-75
2022/06/09 08:52:53;;;;;;;12.43;8.83;;;16.70;99.90;;;;;;5010837;28;20231;-75
2022/06/09 08:56:03;;;;;;;13.73;9.10;;;16.80;99.90;;;;;;5014096;28;20197;-75
2022/06/09 08:58:54;;;;;;;14.73;8.27;;;16.90;99.90;;;;;;4998987;28;20212;-75
2022/06/09 09:01:59;;;;;;;10.37;7.97;;;17.10;99.90;;;;;;5014820;28;20214;-75
2022/06/09 09:04:45;;;;;;;12.50;7.80;;;17.20;99.90;;;;;;5003158;28;20273;-75
2022/06/09 09:07:33;;;;;;;11.67;8.33;;;17.30;99.90;;;;;;5008638;28;20193;-74
2022/06/09 09:10:39;;;;;;;13.87;8.00;;;17.40;99.90;;;;;;5012321;28;20676;-75
2022/06/09 09:13:35;;;;;;;14.53;7.70;;;17.40;99.90;;;;;;5036983;28;20219;-75
2022/06/09 09:16:45;;;;;;;9.17;6.63;;;17.50;99.90;;;;;;5006076;28;20235;-75
2022/06/09 09:19:52;;;;;;;10.33;8.90;;;17.50;99.90;;;;;;5007007;28;20296;-75
2022/06/09 09:22:48;;;;;;;11.93;7.40;;;17.50;99.90;;;;;;5019031;28;20726;-75
2022/06/09 09:26:13;;;;;;;9.83;6.80;;;17.60;99.90;;;;;;5010541;28;20808;-75
2022/06/09 09:29:19;;;;;;;8.77;6.70;;;17.70;99.90;;;;;;5014133;28;20539;-75
2022/06/09 09:32:09;;;;;;;12.83;6.70;;;17.70;99.90;;;;;;5022431;28;20218;-76
2022/06/09 09:34:56;;;;;;;8.20;6.20;;;17.80;99.90;;;;;;5016180;28;20206;-77
2022/06/09 09:37:46;;;;;;;10.20;6.63;;;17.80;99.90;;;;;;5025599;28;20270;-75
2022/06/09 09:40:34;;;;;;;10.03;6.27;;;17.90;99.90;;;;;;5002937;28;20191;-76
2022/06/09 09:43:24;;;;;;;9.03;5.67;;;17.90;99.90;;;;;;5013278;28;20219;-76
2022/06/09 09:46:35;;;;;;;6.80;6.20;;;18.10;99.90;;;;;;5005595;28;20188;-76
2022/06/09 09:49:33;;;;;;;6.63;5.50;;;18.10;99.90;;;;;;5008825;28;20570;-76
2022/06/09 09:52:37;;;;;;;6.70;4.47;;;18.30;99.90;;;;;;5009737;28;20219;-75
2022/06/09 09:55:29;;;;;;;5.97;5.40;;;18.30;99.90;;;;;;5001193;28;20246;-75
2022/06/09 09:58:15;;;;;;;8.20;5.40;;;18.30;99.90;;;;;;5000217;28;20593;-76
2022/06/09 10:01:25;;;;;;;8.57;5.50;;;18.40;99.90;;;;;;5005404;28;20573;-75
2022/06/09 10:10:37;;;;;;;5.30;4.57;;;18.40;99.90;;;;;;5008339;28;20203;-76
2022/06/09 10:13:32;;;;;;;4.80;4.28;;;18.50;99.90;;;;;;4998427;28;20211;-76
2022/06/09 10:16:18;;;;;;;5.77;4.43;;;18.50;99.90;;;;;;5005580;28;20183;-75
2022/06/09 10:19:04;;;;;;;5.72;4.47;;;18.50;99.90;;;;;;4991659;28;20611;-75
2022/06/09 10:21:59;;;;;;;6.45;3.97;;;18.50;99.90;;;;;;5001800;28;20272;-76
2022/06/09 10:24:54;;;;;;;4.10;3.60;;;18.50;99.90;;;;;;5007548;28;20569;-76
2022/06/09 10:27:41;;;;;;;4.97;3.57;;;18.50;99.90;;;;;;5016812;28;20594;-75
2022/06/09 10:30:45;;;;;;;3.28;2.65;;;18.60;99.90;;;;;;5012616;28;20232;-76
2022/06/09 10:33:55;;;;;;;3.47;2.97;;;18.60;99.90;;;;;;5004680;28;20604;-76
2022/06/09 10:37:02;;;;;;;5.18;3.22;;;18.60;99.90;;;;;;5003354;28;20284;-75
2022/06/09 10:40:33;;;;;;;5.43;3.07;;;18.70;99.90;;;;;;5002163;28;20187;-74
2022/06/09 10:43:42;;;;;;;5.63;2.90;;;18.90;99.90;;;;;;4994128;28;20226;-76
2022/06/09 10:46:32;;;;;;;4.85;3.22;;;19.00;99.90;;;;;;5006756;28;20239;-75
2022/06/09 10:56:08;;;;;;;8.73;3.95;;;19.00;99.90;;;;;;5005624;28;20239;-75
2022/06/09 10:58:58;;;;;;;4.45;3.80;;;19.00;99.90;;;;;;5006625;28;20208;-75
2022/06/09 11:01:42;;;;;;;6.33;3.30;;;18.90;99.90;;;;;;5005104;28;20211;-76
2022/06/09 11:04:34;;;;;;;9.57;3.45;;;18.90;99.90;;;;;;5016537;28;20180;-76
2022/06/09 11:07:37;;;;;;;4.70;4.30;;;19.10;99.90;;;;;;5006548;28;20192;-77
2022/06/09 11:10:46;;;;;;;5.17;3.40;;;19.10;99.90;;;;;;5003048;28;20187;-76
2022/06/09 11:13:51;;;;;;;6.57;3.50;;;19.20;99.90;;;;;;5007378;28;20215;-76
2022/06/09 11:17:26;;;;;;;4.82;3.22;;;19.30;99.90;;;;;;5004154;28;20231;-76
2022/06/09 11:20:42;;;;;;;6.20;1.98;;;19.40;99.90;;;;;;4924199;29;20198;-75
2022/06/09 11:23:53;;;;;;;3.75;1.85;;;19.50;99.90;;;;;;4934948;28;20207;-75
2022/06/09 11:26:50;;;;;;;3.53;1.67;;;19.60;99.90;;;;;;5004928;28;20264;-75
2022/06/09 11:30:10;;;;;;;3.45;1.48;;;19.80;99.90;;;;;;5000571;28;20736;-75
2022/06/09 11:33:27;;;;;;;4.55;1.38;;;19.90;99.90;;;;;;4996446;28;20275;-77
2022/06/09 11:36:32;;;;;;;2.03;1.58;;;20.00;99.90;;;;;;5019107;28;20184;-75
2022/06/09 11:39:21;;;;;;;2.10;1.42;;;20.10;99.90;;;;;;5003673;28;20198;-75
2022/06/09 11:42:17;;;;;;;2.33;1.40;;;20.00;99.90;;;;;;5003372;28;20219;-76
2022/06/09 11:45:18;;;;;;;2.40;1.45;;;19.90;99.90;;;;;;5003711;28;20617;-75
2022/06/09 11:48:05;;;;;;;1.92;1.10;;;19.90;99.90;;;;;;4996246;28;20635;-75
2022/06/09 11:50:51;;;;;;;3.35;1.38;;;19.80;99.90;;;;;;4999199;28;20193;-75
2022/06/09 11:53:40;;;;;;;2.30;1.42;;;19.80;99.90;;;;;;5011070;28;20211;-75
2022/06/09 11:56:40;;;;;;;3.35;1.30;;;19.80;99.90;;;;;;5009058;28;20318;-76
2022/06/09 12:00:02;;;;;;;3.40;1.60;;;19.80;99.90;;;;;;5002145;28;20192;-75
2022/06/09 12:03:03;;;;;;;3.78;1.67;;;19.90;99.90;;;;;;5020710;28;20216;-75
2022/06/09 12:06:16;;;;;;;2.10;1.58;;;19.90;99.90;;;;;;5012525;28;20199;-75
2022/06/09 12:09:10;;;;;;;3.25;1.50;;;19.90;99.90;;;;;;4995325;28;20196;-75
2022/06/09 12:12:01;;;;;;;1.70;1.27;;;19.90;99.90;;;;;;4999646;28;20652;-75
2022/06/09 12:14:46;;;;;;;5.63;1.55;;;19.90;99.90;;;;;;5000397;28;20223;-76
2022/06/09 12:17:32;;;;;;;2.53;1.15;;;20.00;99.90;;;;;;5007482;28;20296;-76
2022/06/09 12:20:40;;;;;;;1.40;1.00;;;20.00;99.90;;;;;;5003198;28;20223;-76
2022/06/09 12:23:37;;;;;;;5.25;1.08;;;20.00;99.90;;;;;;5001873;28;20219;-77
2022/06/09 12:26:44;;;;;;;1.48;0.88;;;20.10;99.90;;;;;;5005356;28;20219;-76
2022/06/09 12:29:34;;;;;;;1.38;0.70;;;20.30;99.90;;;;;;5022858;28;20199;-76
2022/06/09 12:32:27;;;;;;;3.17;0.88;;;20.40;99.90;;;;;;5005717;28;20213;-76
2022/06/09 12:35:20;;;;;;;1.55;0.82;;;20.50;99.90;;;;;;5006418;28;20267;-76
2022/06/09 12:38:19;;;;;;;3.80;0.70;;;20.70;99.90;;;;;;5011111;28;20286;-76
2022/06/09 12:41:27;;;;;;;1.95;0.57;;;20.70;99.90;;;;;;5013131;28;20199;-76
2022/06/09 12:44:16;;;;;;;2.00;0.60;;;20.70;99.90;;;;;;5012925;28;20295;-76
2022/06/09 12:47:17;;;;;;;2.65;0.65;;;20.60;99.90;;;;;;5004374;28;20197;-75
2022/06/09 12:50:29;;;;;;;0.70;0.47;;;20.40;99.90;;;;;;5002202;28;20195;-76
2022/06/09 12:53:29;;;;;;;1.33;0.60;;;20.30;99.90;;;;;;5010327;28;20211;-76
2022/06/09 12:56:28;;;;;;;1.00;0.50;;;20.20;99.90;;;;;;5004531;28;20260;-75
2022/06/09 12:59:32;;;;;;;2.38;0.80;;;20.20;99.90;;;;;;5009740;28;20192;-76
2022/06/09 13:02:26;;;;;;;2.33;0.90;;;20.10;99.90;;;;;;5003428;28;20231;-76
2022/06/09 13:05:16;;;;;;;1.55;0.80;;;20.00;99.90;;;;;;5001782;28;20663;-76
2022/06/09 13:08:03;;;;;;;1.65;0.88;;;19.90;99.90;;;;;;5006054;28;20192;-76
2022/06/09 13:10:59;;;;;;;3.38;1.35;;;20.00;99.90;;;;;;5005993;28;20582;-76
2022/06/09 13:13:44;;;;;;;4.82;0.73;;;20.00;99.90;;;;;;5008442;28;20224;-77
2022/06/09 13:16:30;;;;;;;1.67;0.75;;;20.00;99.90;;;;;;5004266;28;20223;-76
2022/06/09 13:19:18;;;;;;;2.45;0.80;;;20.00;99.90;;;;;;5010313;28;20192;-78
2022/06/09 13:22:08;;;;;;;2.58;0.60;;;20.10;99.90;;;;;;5011123;28;20258;-76
2022/06/09 13:24:53;;;;;;;1.70;0.85;;;20.20;99.90;;;;;;5013804;28;20223;-77
2022/06/09 13:27:41;;;;;;;3.15;0.80;;;20.30;99.90;;;;;;5009992;28;20280;-78
2022/06/09 13:30:30;;;;;;;2.90;1.30;;;20.50;99.90;;;;;;5011642;28;20215;-78
2022/06/09 13:33:45;;;;;;;2.00;0.50;;;20.60;99.90;;;;;;5007690;28;20224;-77
2022/06/09 13:36:35;;;;;;;3.80;0.80;;;20.70;99.90;;;;;;5021873;28;20242;-78
2022/06/09 13:39:32;;;;;;;3.10;0.70;;;20.80;99.90;;;;;;4999464;28;20247;-79
2022/06/09 13:42:24;;;;;;;1.25;0.60;;;20.80;99.90;;;;;;5012330;28;20758;-77
2022/06/09 13:45:20;;;;;;;3.25;0.60;;;20.80;99.90;;;;;;5017223;28;20257;-77
2022/06/09 13:48:19;;;;;;;3.60;0.85;;;20.90;99.90;;;;;;5012865;28;20239;-77
2022/06/09 13:51:03;;;;;;;3.33;0.80;;;21.00;99.90;;;;;;5003308;28;20200;-77
2022/06/09 13:54:13;;;;;;;2.58;0.85;;;21.00;99.90;;;;;;5006448;28;20219;-77
2022/06/09 13:57:00;;;;;;;1.70;0.70;;;21.20;99.90;;;;;;5006924;28;20581;-76
2022/06/09 13:59:44;;;;;;;3.22;1.05;;;21.10;99.90;;;;;;5017452;28;20198;-77
2022/06/09 14:02:40;;;;;;;6.95;1.20;;;21.00;99.90;;;;;;4999991;28;20276;-76
2022/06/09 14:05:25;;;;;;;5.65;0.85;;;21.10;99.90;;;;;;5011885;28;20230;-76
2022/06/09 14:08:11;;;;;;;2.22;0.73;;;21.10;99.90;;;;;;5004578;28;20267;-76
2022/06/09 14:10:56;;;;;;;1.73;0.60;;;21.00;99.90;;;;;;5003563;28;20268;-76
2022/06/09 14:13:40;;;;;;;1.60;0.57;;;21.00;99.90;;;;;;5017406;28;20223;-77
2022/06/09 14:16:28;;;;;;;5.65;0.80;;;21.00;99.90;;;;;;5009177;28;20186;-77
2022/06/09 14:19:15;;;;;;;2.65;0.70;;;21.00;99.90;;;;;;5006694;28;20204;-77
2022/06/09 14:22:00;;;;;;;2.58;0.70;;;21.00;99.90;;;;;;5006566;28;20220;-76
2022/06/09 14:24:44;;;;;;;1.55;0.65;;;21.10;99.90;;;;;;5007302;28;20288;-76
2022/06/09 14:27:28;;;;;;;2.83;0.90;;;21.10;99.90;;;;;;5014059;28;20230;-77
2022/06/09 14:30:14;;;;;;;2.53;0.82;;;21.20;99.90;;;;;;5000668;28;20192;-76
2022/06/09 14:32:58;;;;;;;3.15;1.00;;;21.10;99.90;;;;;;5010736;28;20316;-77
2022/06/09 14:35:43;;;;;;;3.85;0.93;;;21.00;99.90;;;;;;5003303;28;20191;-78
2022/06/09 14:38:27;;;;;;;0.80;0.40;;;21.00;99.90;;;;;;5009489;28;20315;-77
2022/06/09 14:41:13;;;;;;;4.30;0.88;;;21.00;99.90;;;;;;5012059;28;20183;-77
2022/06/09 14:43:57;;;;;;;3.15;1.23;;;20.90;99.90;;;;;;5016960;28;20288;-77
2022/06/09 14:46:44;;;;;;;4.70;1.02;;;20.90;99.90;;;;;;5015685;28;20261;-77
2022/06/09 14:49:29;;;;;;;3.45;0.90;;;21.00;99.90;;;;;;5021216;28;20199;-78
2022/06/09 14:52:17;;;;;;;13.82;0.82;;;21.10;99.90;;;;;;5007097;28;20212;-76